createdAt,value
2019-04-04T00:00:02.099Z,26.15
2019-04-04T00:01:02.093Z,26.18
2019-04-04T00:02:02.085Z,26.15
2019-04-04T00:03:02.079Z,26.11
2019-04-04T00:04:02.067Z,26.09
2019-04-04T00:05:02.068Z,26.18
2019-04-04T00:06:02.053Z,26.11
2019-04-04T00:07:02.047Z,26.17
2019-04-04T00:08:02.049Z,26.09
2019-04-04T00:09:02.550Z,26.15
2019-04-04T00:10:03.890Z,26.12
2019-04-04T00:11:02.012Z,26.24
2019-04-04T00:12:02.007Z,26.17
2019-04-04T00:13:02.003Z,26.18
2019-04-04T00:14:02.007Z,26.15
2019-04-04T00:15:01.988Z,26.18
2019-04-04T00:16:01.979Z,26.27
2019-04-04T00:17:01.973Z,26.20
2019-04-04T00:18:01.967Z,26.18
2019-04-04T00:19:01.956Z,26.18
2019-04-04T00:20:01.960Z,26.21
2019-04-04T00:21:02.821Z,26.24
2019-04-04T00:22:02.961Z,26.21
2019-04-04T00:23:02.005Z,26.27
2019-04-04T00:24:01.918Z,26.22
2019-04-04T00:25:01.915Z,26.24
2019-04-04T00:26:01.908Z,26.27
2019-04-04T00:27:01.909Z,26.20
2019-04-04T00:28:01.896Z,26.22
2019-04-04T00:29:01.879Z,26.25
2019-04-04T00:30:01.885Z,26.18
2019-04-04T00:31:01.878Z,26.27
2019-04-04T00:32:01.887Z,26.32
2019-04-04T00:33:01.860Z,26.36
2019-04-04T00:34:01.847Z,26.40
2019-04-04T00:35:01.840Z,26.31
2019-04-04T00:36:02.639Z,26.39
2019-04-04T00:37:04.396Z,26.39
2019-04-04T00:38:01.824Z,26.29
2019-04-04T00:39:01.815Z,26.32
2019-04-04T00:40:01.809Z,26.43
2019-04-04T00:41:01.807Z,26.39
2019-04-04T00:42:01.789Z,26.46
2019-04-04T00:43:01.796Z,26.35
2019-04-04T00:44:01.789Z,26.46
2019-04-04T00:45:01.775Z,26.42
2019-04-04T00:46:01.772Z,26.44
2019-04-04T00:47:02.221Z,26.49
2019-04-04T00:48:03.162Z,26.43
2019-04-04T00:49:04.520Z,26.52
2019-04-04T00:50:01.751Z,26.52
2019-04-04T00:51:01.730Z,26.43
2019-04-04T00:52:01.734Z,26.49
2019-04-04T00:53:01.718Z,26.42
2019-04-04T00:54:01.705Z,26.42
2019-04-04T00:55:01.715Z,26.50
2019-04-04T00:56:01.699Z,26.49
2019-04-04T00:57:01.698Z,26.54
2019-04-04T00:58:01.680Z,26.59
2019-04-04T00:59:01.674Z,26.59
2019-04-04T01:00:01.662Z,26.58
2019-04-04T01:01:01.657Z,26.58
2019-04-04T01:02:01.647Z,26.61
2019-04-04T01:04:34.101Z,26.58
2019-04-04T01:05:33.702Z,26.58
2019-04-04T01:07:27.059Z,26.59
2019-04-04T01:08:27.037Z,26.58
2019-04-04T01:10:20.623Z,26.57
2019-04-04T01:11:20.975Z,26.57
2019-04-04T01:13:13.744Z,26.55
2019-04-04T01:14:13.732Z,26.61
2019-04-04T01:16:29.872Z,26.69
2019-04-04T01:17:29.587Z,26.65
2019-04-04T01:19:22.941Z,26.65
2019-04-04T01:20:22.930Z,26.64
2019-04-04T01:22:16.639Z,26.69
2019-04-04T01:23:16.282Z,26.65
2019-04-04T01:25:09.639Z,26.79
2019-04-04T01:26:09.628Z,26.76
2019-04-04T01:28:03.797Z,26.79
2019-04-04T01:29:05.615Z,26.77
2019-04-04T01:30:56.351Z,26.74
2019-04-04T01:31:56.345Z,26.74
2019-04-04T01:33:51.557Z,26.74
2019-04-04T01:34:50.066Z,26.74
2019-04-04T01:36:43.040Z,26.69
2019-04-04T01:37:43.024Z,26.65
2019-04-04T01:39:37.195Z,26.59
2019-04-04T01:40:36.370Z,26.58
2019-04-04T01:42:29.733Z,26.42
2019-04-04T01:43:29.725Z,26.50
2019-04-04T01:45:23.300Z,26.49
2019-04-04T01:46:23.073Z,26.46
2019-04-04T01:48:18.428Z,26.36
2019-04-04T01:49:16.416Z,26.36
2019-04-04T01:51:09.984Z,26.35
2019-04-04T01:52:09.754Z,26.22
2019-04-04T01:54:02.640Z,26.24
2019-04-04T01:55:03.505Z,26.27
2019-04-04T01:56:56.207Z,26.20
2019-04-04T01:57:55.979Z,26.17
2019-04-04T01:59:49.339Z,26.20
2019-04-04T02:00:49.328Z,26.11
2019-04-04T02:02:42.947Z,26.15
2019-04-04T02:03:42.674Z,26.15
2019-04-04T02:05:36.036Z,26.11
2019-04-04T02:06:36.019Z,26.11
2019-04-04T02:08:31.403Z,26.15
2019-04-04T02:09:29.614Z,26.08
2019-04-04T02:11:23.567Z,26.12
2019-04-04T02:12:22.966Z,26.02
2019-04-04T02:14:19.357Z,26.04
2019-04-04T02:15:16.319Z,26.09
2019-04-04T02:17:09.767Z,26.04
2019-04-04T02:18:09.649Z,25.97
2019-04-04T02:20:03.248Z,25.98
2019-04-04T02:21:03.011Z,26.06
2019-04-04T02:22:56.357Z,26.04
2019-04-04T02:23:56.337Z,26.02
2019-04-04T02:25:49.901Z,26.12
2019-04-04T02:26:49.713Z,26.17
2019-04-04T02:28:43.108Z,26.22
2019-04-04T02:29:43.069Z,26.22
2019-04-04T02:31:36.602Z,26.28
2019-04-04T02:32:36.415Z,26.25
2019-04-04T02:34:29.769Z,26.32
2019-04-04T02:35:29.767Z,26.31
2019-04-04T02:37:23.296Z,26.35
2019-04-04T02:39:55.176Z,26.32
2019-04-04T02:40:55.229Z,26.15
2019-04-04T02:42:48.735Z,25.97
2019-04-04T02:43:48.511Z,25.91
2019-04-04T02:45:41.879Z,25.69
2019-04-04T02:46:44.748Z,25.62
2019-04-04T02:48:35.440Z,25.59
2019-04-04T02:49:35.201Z,25.47
2019-04-04T02:51:28.546Z,25.47
2019-04-04T02:52:28.561Z,25.37
2019-04-04T02:54:24.518Z,25.32
2019-04-04T02:57:15.254Z,25.28
2019-04-04T02:58:15.459Z,25.30
2019-04-04T03:00:09.422Z,25.28
2019-04-04T03:01:08.574Z,25.30
2019-04-04T03:03:01.943Z,25.32
2019-04-04T03:04:01.947Z,25.28
2019-04-04T03:05:55.511Z,25.28
2019-04-04T03:06:58.499Z,25.19
2019-04-04T03:08:48.618Z,25.16
2019-04-04T03:09:48.616Z,25.12
2019-04-04T03:11:42.179Z,25.01
2019-04-04T03:12:41.951Z,24.77
2019-04-04T03:14:37.416Z,24.77
2019-04-04T03:15:35.293Z,24.71
2019-04-04T03:17:32.564Z,24.57
2019-04-04T03:18:29.213Z,24.45
2019-04-04T03:20:22.592Z,24.37
2019-04-04T03:21:23.681Z,24.35
2019-04-04T03:23:16.130Z,24.27
2019-04-04T03:24:15.892Z,24.31
2019-04-04T03:26:09.351Z,24.29
2019-04-04T03:27:09.236Z,24.27
2019-04-04T03:29:05.628Z,24.10
2019-04-04T03:30:02.588Z,24.17
2019-04-04T03:31:56.039Z,24.04
2019-04-04T03:32:55.947Z,24.02
2019-04-04T03:34:51.066Z,24.01
2019-04-04T03:35:49.271Z,23.95
2019-04-04T03:37:46.043Z,24.13
2019-04-04T03:40:14.907Z,24.29
2019-04-04T03:41:14.654Z,24.41
2019-04-04T03:43:08.012Z,24.47
2019-04-04T03:44:08.010Z,24.63
2019-04-04T03:46:01.778Z,24.83
2019-04-04T03:47:01.353Z,24.94
2019-04-04T03:48:54.702Z,24.97
2019-04-04T03:49:57.576Z,25.09
2019-04-04T03:51:47.857Z,25.20
2019-04-04T03:52:47.554Z,25.17
2019-04-04T03:54:40.927Z,25.25
2019-04-04T03:55:40.920Z,25.32
2019-04-04T03:57:34.483Z,25.32
2019-04-04T03:58:34.262Z,25.43
2019-04-04T04:00:27.712Z,25.42
2019-04-04T04:01:27.598Z,25.57
2019-04-04T04:03:22.762Z,25.56
2019-04-04T04:04:20.943Z,25.59
2019-04-04T04:06:14.300Z,25.59
2019-04-04T04:07:15.333Z,25.62
2019-04-04T04:09:07.859Z,25.72
2019-04-04T04:10:07.631Z,25.67
2019-04-04T04:12:02.577Z,25.77
2019-04-04T04:13:00.970Z,25.72
2019-04-04T04:14:55.173Z,25.68
2019-04-04T04:15:54.311Z,25.68
2019-04-04T04:17:47.693Z,25.74
2019-04-04T04:18:47.663Z,25.68
2019-04-04T04:20:41.334Z,25.75
2019-04-04T04:21:43.268Z,25.80
2019-04-04T04:23:34.959Z,25.77
2019-04-04T04:24:34.340Z,25.79
2019-04-04T04:26:27.904Z,25.77
2019-04-04T04:27:27.686Z,25.77
2019-04-04T04:29:21.630Z,25.83
2019-04-04T04:30:21.039Z,25.83
2019-04-04T04:32:14.608Z,25.80
2019-04-04T04:33:14.377Z,25.90
2019-04-04T04:35:08.880Z,25.82
2019-04-04T04:36:09.731Z,25.74
2019-04-04T04:38:01.290Z,25.64
2019-04-04T04:39:01.082Z,25.67
2019-04-04T04:40:54.435Z,25.57
2019-04-04T04:41:54.503Z,25.49
2019-04-04T04:43:48.096Z,25.30
2019-04-04T04:44:47.764Z,25.27
2019-04-04T04:46:41.215Z,25.13
2019-04-04T04:47:41.122Z,25.16
2019-04-04T04:49:35.673Z,24.97
2019-04-04T04:50:34.479Z,25.01
2019-04-04T04:52:27.805Z,24.98
2019-04-04T04:53:27.787Z,24.98
2019-04-04T04:55:21.381Z,24.95
2019-04-04T04:56:21.140Z,24.82
2019-04-04T04:58:14.493Z,24.88
2019-04-04T04:59:14.482Z,24.91
2019-04-04T05:01:08.065Z,24.77
2019-04-04T05:02:07.819Z,24.71
2019-04-04T05:04:02.579Z,24.75
2019-04-04T05:05:01.179Z,24.68
2019-04-04T05:06:54.719Z,24.67
2019-04-04T05:07:55.013Z,24.60
2019-04-04T05:09:47.463Z,24.42
2019-04-04T05:10:47.376Z,24.44
2019-04-04T05:12:40.964Z,24.44
2019-04-04T05:13:40.721Z,24.34
2019-04-04T05:15:34.170Z,24.34
2019-04-04T05:16:34.069Z,24.41
2019-04-04T05:18:29.320Z,24.38
2019-04-04T05:19:29.103Z,24.50
2019-04-04T05:21:25.389Z,24.47
2019-04-04T05:22:22.458Z,24.49
2019-04-04T05:24:17.992Z,24.57
2019-04-04T05:25:15.819Z,24.52
2019-04-04T05:26:16.162Z,24.47
2019-04-04T05:27:15.800Z,24.47
2019-04-04T05:28:15.779Z,24.39
2019-04-04T05:29:15.768Z,24.41
2019-04-04T05:30:16.607Z,24.44
2019-04-04T05:31:16.152Z,24.41
2019-04-04T05:32:15.746Z,24.42
2019-04-04T05:33:15.741Z,24.44
2019-04-04T05:34:15.759Z,24.49
2019-04-04T05:35:15.739Z,24.54
2019-04-04T05:36:15.733Z,24.54
2019-04-04T05:37:15.705Z,24.52
2019-04-04T05:38:15.699Z,24.54
2019-04-04T05:39:17.710Z,24.56
2019-04-04T05:40:15.686Z,24.56
2019-04-04T05:41:16.586Z,24.54
2019-04-04T05:42:15.662Z,24.56
2019-04-04T05:43:15.660Z,24.50
2019-04-04T05:44:15.662Z,24.53
2019-04-04T05:45:15.648Z,24.52
2019-04-04T05:46:18.525Z,24.47
2019-04-04T05:47:15.636Z,24.45
2019-04-04T05:48:15.619Z,24.50
2019-04-04T05:49:15.601Z,24.41
2019-04-04T05:50:16.500Z,24.35
2019-04-04T05:51:15.987Z,24.35
2019-04-04T05:52:15.584Z,24.32
2019-04-04T05:53:15.580Z,24.31
2019-04-04T05:54:15.569Z,24.29
2019-04-04T05:55:15.566Z,24.29
2019-04-04T05:56:17.731Z,24.16
2019-04-04T05:57:15.656Z,24.13
2019-04-04T05:58:15.562Z,24.17
2019-04-04T05:59:15.525Z,24.13
2019-04-04T06:00:15.535Z,24.14
2019-04-04T06:01:15.512Z,24.22
2019-04-04T06:02:15.504Z,24.13
2019-04-04T06:03:15.947Z,24.01
2019-04-04T06:04:17.255Z,24.00
2019-04-04T06:05:15.481Z,24.01
2019-04-04T06:06:15.487Z,23.95
2019-04-04T06:07:16.476Z,23.95
2019-04-04T06:08:15.464Z,24.04
2019-04-04T06:09:15.449Z,23.98
2019-04-04T06:10:18.143Z,24.05
2019-04-04T06:11:15.432Z,24.08
2019-04-04T06:12:15.416Z,24.13
2019-04-04T06:13:15.414Z,24.02
2019-04-04T06:14:15.404Z,24.16
2019-04-04T06:15:15.400Z,24.16
2019-04-04T06:16:15.397Z,24.07
2019-04-04T06:17:15.392Z,24.16
2019-04-04T06:18:15.379Z,24.16
2019-04-04T06:19:15.361Z,24.12
2019-04-04T06:20:15.656Z,24.14
2019-04-04T06:21:18.446Z,24.13
2019-04-04T06:22:15.345Z,24.07
2019-04-04T06:23:15.332Z,24.05
2019-04-04T06:24:15.324Z,24.08
2019-04-04T06:25:15.321Z,24.20
2019-04-04T06:26:15.311Z,24.19
2019-04-04T06:27:15.310Z,24.14
2019-04-04T06:28:15.305Z,24.14
2019-04-04T06:29:17.412Z,24.02
2019-04-04T06:30:15.288Z,24.16
2019-04-04T06:31:15.268Z,24.16
2019-04-04T06:32:15.309Z,24.13
2019-04-04T06:33:15.250Z,24.07
2019-04-04T06:34:15.257Z,24.08
2019-04-04T06:35:15.471Z,24.04
2019-04-04T06:36:17.534Z,24.01
2019-04-04T06:37:15.229Z,24.01
2019-04-04T06:38:15.213Z,23.95
2019-04-04T06:39:15.206Z,23.94
2019-04-04T06:40:15.209Z,23.87
2019-04-04T06:41:15.185Z,23.86
2019-04-04T06:42:15.179Z,23.83
2019-04-04T06:43:15.167Z,23.80
2019-04-04T06:44:15.163Z,23.80
2019-04-04T06:45:15.906Z,23.80
2019-04-04T06:46:18.939Z,23.79
2019-04-04T06:47:16.463Z,23.82
2019-04-04T06:48:15.133Z,23.82
2019-04-04T06:49:15.123Z,23.67
2019-04-04T06:50:15.116Z,23.60
2019-04-04T06:51:15.119Z,23.55
2019-04-04T06:52:16.288Z,23.26
2019-04-04T06:53:15.091Z,23.38
2019-04-04T06:54:15.075Z,23.17
2019-04-04T06:55:15.069Z,23.22
2019-04-04T06:56:15.068Z,23.19
2019-04-04T06:57:15.067Z,23.22
2019-04-04T06:58:17.003Z,23.20
2019-04-04T06:59:15.073Z,23.20
2019-04-04T07:00:16.027Z,23.24
2019-04-04T07:01:15.036Z,23.40
2019-04-04T07:02:15.016Z,23.32
2019-04-04T07:03:15.020Z,23.39
2019-04-04T07:04:17.173Z,23.31
2019-04-04T07:05:14.994Z,23.23
2019-04-04T07:06:14.980Z,23.19
2019-04-04T07:07:14.965Z,23.23
2019-04-04T07:08:15.790Z,23.17
2019-04-04T07:09:18.196Z,23.15
2019-04-04T07:10:14.944Z,23.26
2019-04-04T07:11:21.276Z,23.04
2019-04-04T07:12:22.237Z,23.09
2019-04-04T07:13:22.171Z,23.01
2019-04-04T07:14:14.914Z,22.94
2019-04-04T07:15:15.896Z,22.78
2019-04-04T07:16:14.896Z,22.56
2019-04-04T07:17:16.324Z,22.38
2019-04-04T07:18:14.875Z,22.31
2019-04-04T07:19:15.190Z,22.17
2019-04-04T07:20:16.579Z,21.98
2019-04-04T07:21:14.874Z,21.75
2019-04-04T07:22:14.845Z,21.59
2019-04-04T07:23:14.851Z,21.45
2019-04-04T07:24:14.872Z,21.36
2019-04-04T07:25:14.831Z,21.19
2019-04-04T07:26:14.999Z,21.16
2019-04-04T07:27:16.306Z,21.02
2019-04-04T07:28:14.825Z,20.95
2019-04-04T07:29:14.790Z,21.01
2019-04-04T07:30:15.497Z,20.95
2019-04-04T07:31:16.200Z,21.05
2019-04-04T07:32:14.753Z,21.19
2019-04-04T07:33:14.747Z,21.21
2019-04-04T07:34:14.755Z,21.32
2019-04-04T07:35:16.751Z,21.36
2019-04-04T07:36:14.722Z,21.29
2019-04-04T07:37:14.743Z,21.38
2019-04-04T07:38:14.746Z,21.45
2019-04-04T07:39:14.701Z,21.53
2019-04-04T07:40:14.876Z,21.57
2019-04-04T07:41:14.927Z,21.71
2019-04-04T07:42:15.887Z,21.82
2019-04-04T07:43:14.706Z,21.81
2019-04-04T07:44:14.656Z,21.91
2019-04-04T07:45:14.665Z,21.95
2019-04-04T07:46:16.832Z,21.95
2019-04-04T07:47:16.126Z,22.06
2019-04-04T07:48:17.688Z,22.07
2019-04-04T07:49:14.611Z,22.16
2019-04-04T07:50:14.606Z,22.20
2019-04-04T07:51:14.594Z,22.28
2019-04-04T07:52:17.122Z,22.28
2019-04-04T07:53:14.577Z,22.38
2019-04-04T07:54:14.568Z,22.31
2019-04-04T07:55:14.559Z,22.43
2019-04-04T07:56:14.959Z,22.43
2019-04-04T07:57:14.550Z,22.50
2019-04-04T07:58:14.528Z,22.41
2019-04-04T07:59:14.524Z,22.47
2019-04-04T08:00:14.510Z,22.57
2019-04-04T08:01:14.512Z,22.56
2019-04-04T08:02:14.516Z,22.65
2019-04-04T08:03:14.500Z,22.71
2019-04-04T08:04:14.479Z,22.77
2019-04-04T08:05:14.474Z,22.78
2019-04-04T08:06:14.463Z,22.86
2019-04-04T08:07:14.450Z,22.94
2019-04-04T08:08:14.487Z,22.94
2019-04-04T08:09:14.448Z,23.02
2019-04-04T08:10:20.578Z,23.08
2019-04-04T08:11:14.429Z,23.19
2019-04-04T08:12:14.423Z,23.20
2019-04-04T08:13:14.407Z,23.19
2019-04-04T08:14:14.401Z,23.34
2019-04-04T08:15:14.399Z,23.31
2019-04-04T08:16:14.382Z,23.39
2019-04-04T08:17:14.371Z,23.45
2019-04-04T08:18:14.376Z,23.47
2019-04-04T08:19:14.352Z,23.52
2019-04-04T08:20:14.354Z,23.55
2019-04-04T08:21:14.338Z,23.53
2019-04-04T08:22:14.395Z,23.53
2019-04-04T08:23:14.322Z,23.50
2019-04-04T08:24:14.305Z,23.53
2019-04-04T08:25:14.300Z,23.62
2019-04-04T08:26:14.319Z,23.65
2019-04-04T08:27:14.274Z,23.67
2019-04-04T08:28:14.269Z,23.64
2019-04-04T08:29:14.263Z,23.72
2019-04-04T08:30:14.257Z,23.68
2019-04-04T08:31:14.251Z,23.61
2019-04-04T08:32:14.243Z,23.67
2019-04-04T08:33:14.225Z,23.71
2019-04-04T08:34:14.224Z,23.70
2019-04-04T08:35:14.216Z,23.79
2019-04-04T08:36:14.214Z,23.77
2019-04-04T08:37:14.203Z,23.77
2019-04-04T08:38:14.195Z,23.83
2019-04-04T08:39:14.187Z,23.80
2019-04-04T08:40:14.267Z,23.82
2019-04-04T08:41:14.208Z,23.83
2019-04-04T08:42:14.170Z,23.82
2019-04-04T08:43:14.165Z,23.85
2019-04-04T08:44:14.141Z,23.87
2019-04-04T08:45:14.138Z,23.85
2019-04-04T08:46:14.124Z,23.87
2019-04-04T08:47:14.127Z,23.86
2019-04-04T08:48:14.110Z,23.97
2019-04-04T08:50:46.989Z,23.90
2019-04-04T08:51:46.166Z,23.95
2019-04-04T08:53:40.652Z,23.97
2019-04-04T08:54:40.498Z,23.89
2019-04-04T08:55:41.006Z,23.85
2019-04-04T08:56:40.481Z,23.85
2019-04-04T08:57:40.479Z,23.85
2019-04-04T08:58:40.521Z,23.85
2019-04-04T08:59:40.446Z,23.86
2019-04-04T09:00:40.457Z,23.83
2019-04-04T09:01:40.437Z,23.85
2019-04-04T09:02:40.439Z,23.80
2019-04-04T09:03:40.423Z,23.79
2019-04-04T09:04:40.410Z,23.77
2019-04-04T09:05:40.413Z,23.77
2019-04-04T09:06:40.401Z,23.79
2019-04-04T09:07:40.388Z,23.80
2019-04-04T09:08:40.380Z,23.76
2019-04-04T09:09:40.394Z,23.76
2019-04-04T09:11:40.365Z,23.75
2019-04-04T09:12:40.349Z,23.72
2019-04-04T09:13:40.343Z,23.68
2019-04-04T09:14:41.253Z,23.70
2019-04-04T09:15:40.321Z,23.72
2019-04-04T09:16:40.368Z,23.70
2019-04-04T09:17:40.295Z,23.65
2019-04-04T09:18:40.296Z,23.67
2019-04-04T09:19:40.290Z,23.72
2019-04-04T09:20:40.291Z,23.62
2019-04-04T09:21:40.310Z,23.60
2019-04-04T09:22:41.100Z,23.62
2019-04-04T09:23:40.264Z,23.61
2019-04-04T09:24:40.253Z,23.57
2019-04-04T09:25:40.960Z,23.57
2019-04-04T09:26:40.249Z,23.52
2019-04-04T09:27:40.225Z,23.61
2019-04-04T09:28:40.282Z,23.61
2019-04-04T09:29:40.211Z,23.58
2019-04-04T09:30:40.203Z,23.61
2019-04-04T09:31:40.198Z,23.60
2019-04-04T09:32:40.183Z,23.61
2019-04-04T09:33:40.257Z,23.46
2019-04-04T09:34:40.166Z,23.55
2019-04-04T09:35:40.159Z,23.53
2019-04-04T09:36:40.151Z,23.42
2019-04-04T09:37:40.140Z,23.39
2019-04-04T09:38:40.608Z,23.40
2019-04-04T09:39:40.126Z,23.45
2019-04-04T09:40:40.121Z,23.47
2019-04-04T09:41:40.108Z,23.42
2019-04-04T09:42:40.104Z,23.52
2019-04-04T09:43:40.086Z,23.50
2019-04-04T09:44:40.085Z,23.53
2019-04-04T09:45:40.072Z,23.58
2019-04-04T09:46:40.056Z,23.61
2019-04-04T09:47:40.061Z,23.55
2019-04-04T09:48:40.046Z,23.61
2019-04-04T09:49:40.041Z,23.64
2019-04-04T09:50:40.030Z,23.61
2019-04-04T09:51:40.027Z,23.65
2019-04-04T09:52:40.020Z,23.62
2019-04-04T09:53:52.406Z,23.55
2019-04-04T09:54:39.998Z,23.60
2019-04-04T09:55:39.991Z,23.58
2019-04-04T09:56:39.978Z,23.52
2019-04-04T09:57:39.972Z,23.61
2019-04-04T09:58:39.961Z,23.62
2019-04-04T09:59:39.969Z,23.57
2019-04-04T10:00:39.946Z,23.60
2019-04-04T10:01:39.937Z,23.43
2019-04-04T10:02:39.936Z,23.46
2019-04-04T10:03:39.927Z,23.43
2019-04-04T10:04:39.921Z,23.40
2019-04-04T10:05:39.910Z,23.32
2019-04-04T10:06:39.896Z,23.38
2019-04-04T10:07:39.889Z,23.31
2019-04-04T10:08:39.899Z,23.31
2019-04-04T10:09:39.880Z,23.29
2019-04-04T10:10:40.631Z,23.38
2019-04-04T10:11:39.850Z,23.32
2019-04-04T10:12:39.851Z,23.26
2019-04-04T10:13:39.847Z,23.27
2019-04-04T10:14:39.839Z,23.31
2019-04-04T10:15:39.827Z,23.31
2019-04-04T10:16:39.817Z,23.35
2019-04-04T10:17:39.815Z,23.26
2019-04-04T10:18:39.802Z,23.35
2019-04-04T10:19:39.799Z,23.39
2019-04-04T10:20:39.782Z,23.39
2019-04-04T10:21:39.773Z,23.40
2019-04-04T10:22:39.772Z,23.39
2019-04-04T10:23:39.840Z,23.34
2019-04-04T10:24:39.746Z,23.35
2019-04-04T10:27:12.572Z,23.31
2019-04-04T10:28:12.341Z,23.27
2019-04-04T10:30:05.714Z,23.26
2019-04-04T10:31:05.690Z,23.22
2019-04-04T10:33:00.335Z,23.20
2019-04-04T10:34:00.090Z,23.19
2019-04-04T10:35:53.439Z,23.09
2019-04-04T10:36:53.421Z,23.08
2019-04-04T10:38:46.993Z,23.14
2019-04-04T10:39:46.761Z,23.12
2019-04-04T10:41:40.115Z,22.99
2019-04-04T10:42:40.106Z,23.08
2019-04-04T10:44:36.769Z,22.97
2019-04-04T10:45:33.447Z,22.92
2019-04-04T10:47:26.899Z,23.01
2019-04-04T10:48:26.784Z,23.02
2019-04-04T10:50:20.352Z,22.96
2019-04-04T10:51:20.122Z,22.96
2019-04-04T10:53:13.472Z,22.92
2019-04-04T10:54:13.463Z,22.80
2019-04-04T10:56:07.044Z,22.89
2019-04-04T10:57:06.808Z,22.82
2019-04-04T10:59:00.260Z,22.84
2019-04-04T11:00:03.080Z,22.83
2019-04-04T11:01:53.725Z,22.83
2019-04-04T11:02:53.505Z,22.82
2019-04-04T11:04:46.855Z,22.80
2019-04-04T11:05:46.845Z,22.83
2019-04-04T11:07:39.929Z,22.83
2019-04-04T11:08:39.694Z,22.90
2019-04-04T11:10:33.046Z,22.78
2019-04-04T11:11:33.040Z,22.78
2019-04-04T11:13:33.433Z,22.87
2019-04-04T11:14:26.438Z,22.86
2019-04-04T11:16:29.502Z,22.80
2019-04-04T11:17:19.718Z,22.82
2019-04-04T11:19:13.294Z,22.84
2019-04-04T11:20:13.060Z,22.93
2019-04-04T11:22:05.930Z,22.75
2019-04-04T11:23:05.917Z,22.94
2019-04-04T11:24:59.502Z,22.83
2019-04-04T11:25:59.290Z,22.80
2019-04-04T11:27:52.617Z,22.84
2019-04-04T11:28:52.603Z,22.74
2019-04-04T11:30:46.177Z,22.60
2019-04-04T11:31:45.942Z,22.53
2019-04-04T11:33:39.310Z,22.78
2019-04-04T11:34:39.301Z,22.82
2019-04-04T11:36:32.880Z,23.04
2019-04-04T11:37:32.628Z,23.24
2019-04-04T11:39:25.994Z,23.26
2019-04-04T11:40:25.973Z,23.22
2019-04-04T11:42:19.500Z,22.84
2019-04-04T11:43:19.302Z,22.71
2019-04-04T11:45:12.684Z,22.38
2019-04-04T11:46:12.666Z,22.25
2019-04-04T11:48:06.230Z,21.85
2019-04-04T11:49:05.987Z,21.66
2019-04-04T11:50:59.336Z,21.42
2019-04-04T11:52:00.921Z,21.35
2019-04-04T11:53:52.908Z,21.02
2019-04-04T11:54:52.671Z,20.86
2019-04-04T11:56:46.030Z,20.81
2019-04-04T11:57:46.007Z,20.79
2019-04-04T11:59:39.536Z,20.76
2019-04-04T12:00:39.347Z,20.65
2019-04-04T12:02:32.976Z,20.58
2019-04-04T12:03:32.698Z,20.58
2019-04-04T12:05:26.278Z,20.47
2019-04-04T12:06:26.038Z,20.42
2019-04-04T12:07:26.029Z,20.54
2019-04-04T12:08:26.015Z,20.59
2019-04-04T12:09:26.014Z,20.61
2019-04-04T12:10:26.002Z,20.68
2019-04-04T12:11:25.991Z,20.71
2019-04-04T12:12:25.982Z,20.81
2019-04-04T12:13:25.974Z,20.81
2019-04-04T12:14:25.999Z,20.86
2019-04-04T12:15:25.951Z,20.87
2019-04-04T12:16:25.952Z,20.95
2019-04-04T12:17:25.936Z,20.99
2019-04-04T12:18:25.928Z,21.02
2019-04-04T12:19:25.915Z,20.95
2019-04-04T12:20:25.930Z,21.13
2019-04-04T12:21:25.898Z,21.13
2019-04-04T12:22:25.908Z,21.04
2019-04-04T12:23:25.882Z,21.04
2019-04-04T12:24:25.909Z,21.06
2019-04-04T12:25:25.854Z,21.09
2019-04-04T12:26:25.864Z,20.95
2019-04-04T12:27:25.841Z,21.05
2019-04-04T12:28:25.846Z,20.96
2019-04-04T12:29:25.835Z,20.98
2019-04-04T12:30:25.821Z,21.09
2019-04-04T12:31:25.810Z,21.01
2019-04-04T12:32:25.805Z,21.06
2019-04-04T12:33:25.782Z,21.09
2019-04-04T12:34:25.782Z,21.08
2019-04-04T12:35:25.782Z,21.13
2019-04-04T12:36:25.751Z,21.06
2019-04-04T12:37:25.744Z,21.19
2019-04-04T12:38:25.747Z,21.24
2019-04-04T12:39:25.729Z,21.36
2019-04-04T12:40:25.746Z,21.44
2019-04-04T12:41:28.111Z,21.54
2019-04-04T12:42:25.715Z,21.66
2019-04-04T12:43:25.699Z,21.69
2019-04-04T12:44:25.685Z,21.82
2019-04-04T12:45:25.678Z,21.91
2019-04-04T12:46:25.661Z,22.02
2019-04-04T12:47:25.650Z,22.17
2019-04-04T12:48:25.652Z,22.23
2019-04-04T12:49:25.638Z,22.29
2019-04-04T12:50:25.630Z,22.32
2019-04-04T12:51:25.624Z,22.53
2019-04-04T12:52:25.614Z,22.46
2019-04-04T12:53:25.602Z,22.60
2019-04-04T12:54:25.589Z,22.71
2019-04-04T12:55:25.593Z,22.74
2019-04-04T12:56:25.575Z,22.86
2019-04-04T12:57:25.576Z,22.83
2019-04-04T12:58:25.561Z,22.92
2019-04-04T12:59:25.556Z,22.97
2019-04-04T13:00:25.544Z,23.01
2019-04-04T13:01:25.533Z,23.05
2019-04-04T13:02:25.527Z,23.08
2019-04-04T13:03:25.520Z,23.23
2019-04-04T13:04:31.444Z,23.22
2019-04-04T13:05:25.497Z,23.29
2019-04-04T13:06:25.485Z,23.31
2019-04-04T13:07:25.480Z,23.35
2019-04-04T13:08:25.469Z,23.39
2019-04-04T13:09:25.484Z,23.38
2019-04-04T13:10:32.993Z,23.39
2019-04-04T13:12:25.447Z,23.52
2019-04-04T13:13:25.431Z,23.53
2019-04-04T13:14:25.425Z,23.61
2019-04-04T13:15:25.410Z,23.45
2019-04-04T13:16:25.401Z,23.53
2019-04-04T13:17:25.386Z,23.57
2019-04-04T13:18:25.388Z,23.53
2019-04-04T13:19:25.380Z,23.57
2019-04-04T13:20:25.365Z,23.60
2019-04-04T13:21:25.361Z,23.58
2019-04-04T13:22:25.358Z,23.71
2019-04-04T13:23:25.333Z,23.64
2019-04-04T13:24:25.335Z,23.65
2019-04-04T13:25:25.321Z,23.75
2019-04-04T13:26:25.313Z,23.70
2019-04-04T13:27:25.309Z,23.70
2019-04-04T13:28:25.288Z,23.79
2019-04-04T13:29:25.288Z,23.82
2019-04-04T13:30:25.289Z,23.85
2019-04-04T13:31:25.269Z,23.77
2019-04-04T13:32:25.259Z,23.83
2019-04-04T13:33:25.246Z,23.85
2019-04-04T13:34:25.244Z,23.83
2019-04-04T13:35:25.231Z,23.85
2019-04-04T13:36:26.114Z,23.86
2019-04-04T13:37:25.219Z,23.89
2019-04-04T13:38:25.218Z,23.92
2019-04-04T13:39:25.210Z,23.94
2019-04-04T13:40:25.185Z,23.95
2019-04-04T13:41:25.193Z,23.90
2019-04-04T13:42:25.177Z,23.94
2019-04-04T13:43:25.177Z,23.94
2019-04-04T13:44:25.161Z,23.94
2019-04-04T13:45:25.936Z,23.95
2019-04-04T13:46:28.069Z,24.02
2019-04-04T13:47:25.136Z,24.00
2019-04-04T13:48:25.137Z,24.07
2019-04-04T13:49:25.122Z,24.07
2019-04-04T13:50:25.108Z,24.02
2019-04-04T13:51:25.646Z,24.01
2019-04-04T13:52:26.425Z,24.00
2019-04-04T13:53:25.433Z,24.04
2019-04-04T13:54:25.080Z,24.04
2019-04-04T13:55:25.138Z,24.07
2019-04-04T13:56:25.065Z,24.07
2019-04-04T13:57:25.058Z,24.08
2019-04-04T13:58:25.050Z,24.08
2019-04-04T13:59:25.045Z,24.07
2019-04-04T14:00:25.031Z,24.05
2019-04-04T14:01:25.521Z,24.12
2019-04-04T14:02:25.008Z,24.13
2019-04-04T14:03:25.007Z,24.12
2019-04-04T14:04:25.258Z,24.07
2019-04-04T14:05:24.986Z,24.08
2019-04-04T14:06:24.991Z,24.08
2019-04-04T14:07:24.969Z,24.13
2019-04-04T14:08:24.959Z,24.13
2019-04-04T14:09:24.950Z,24.16
2019-04-04T14:10:24.951Z,24.14
2019-04-04T14:11:24.933Z,24.14
2019-04-04T14:12:24.929Z,24.17
2019-04-04T14:13:26.306Z,24.12
2019-04-04T14:14:24.916Z,24.14
2019-04-04T14:15:24.909Z,24.10
2019-04-04T14:16:24.895Z,24.19
2019-04-04T14:17:24.897Z,24.17
2019-04-04T14:18:37.931Z,24.19
2019-04-04T14:19:24.866Z,24.23
2019-04-04T14:20:24.865Z,24.13
2019-04-04T14:21:24.851Z,24.12
2019-04-04T14:22:24.849Z,24.14
2019-04-04T14:23:24.833Z,24.17
2019-04-04T14:24:24.822Z,24.17
2019-04-04T14:25:24.819Z,24.24
2019-04-04T14:26:24.821Z,24.16
2019-04-04T14:27:26.989Z,24.27
2019-04-04T14:28:26.517Z,24.19
2019-04-04T14:29:27.806Z,24.16
2019-04-04T14:30:24.785Z,24.23
2019-04-04T14:31:24.773Z,24.24
2019-04-04T14:32:24.757Z,24.24
2019-04-04T14:33:24.758Z,24.22
2019-04-04T14:34:24.751Z,24.17
2019-04-04T14:35:24.737Z,24.17
2019-04-04T14:36:24.728Z,24.24
2019-04-04T14:37:24.718Z,24.29
2019-04-04T14:38:24.712Z,24.22
2019-04-04T14:39:24.713Z,24.22
2019-04-04T14:40:24.709Z,24.22
2019-04-04T14:41:24.689Z,24.24
2019-04-04T14:42:24.688Z,24.26
2019-04-04T14:43:24.667Z,24.26
2019-04-04T14:44:24.662Z,24.32
2019-04-04T14:45:24.655Z,24.24
2019-04-04T14:46:24.654Z,24.29
2019-04-04T14:47:24.644Z,24.27
2019-04-04T14:48:24.637Z,24.26
2019-04-04T14:49:24.625Z,24.34
2019-04-04T14:50:24.622Z,24.32
2019-04-04T14:51:24.611Z,24.23
2019-04-04T14:52:24.600Z,24.35